createdAt,value
2023-05-01T00:01:03.042Z,95210
2023-05-01T00:04:28.350Z,95201
2023-05-01T00:07:53.598Z,95197
2023-05-01T00:11:18.874Z,95193
2023-05-01T00:14:44.269Z,95193
2023-05-01T00:18:09.489Z,95194
2023-05-01T00:21:34.724Z,95189
2023-05-01T00:24:59.943Z,95189
2023-05-01T00:28:25.205Z,95174
2023-05-01T00:31:50.567Z,95175
2023-05-01T00:35:15.765Z,95172
2023-05-01T00:38:41.010Z,95173
2023-05-01T00:42:06.237Z,95174
2023-05-01T00:45:31.542Z,95169
2023-05-01T00:48:56.787Z,95162
2023-05-01T00:52:22.053Z,95163
2023-05-01T00:55:47.361Z,95152
2023-05-01T00:59:12.540Z,95142
2023-05-01T01:02:37.800Z,95139
2023-05-01T01:06:03.103Z,95129
2023-05-01T01:09:28.313Z,95136
2023-05-01T01:12:53.567Z,95127
2023-05-01T01:16:18.850Z,95124
2023-05-01T01:19:44.042Z,95133
2023-05-01T01:23:09.304Z,95134
2023-05-01T01:26:34.520Z,95134
2023-05-01T01:29:59.803Z,95128
2023-05-01T01:33:25.040Z,95125
2023-05-01T01:36:50.296Z,95121
2023-05-01T01:40:15.560Z,95120
2023-05-01T01:43:40.801Z,95114
2023-05-01T01:47:06.016Z,95110
2023-05-01T01:50:31.272Z,95103
2023-05-01T01:53:56.524Z,95102
2023-05-01T01:57:21.817Z,95100
2023-05-01T02:00:47.055Z,95099
2023-05-01T02:04:12.358Z,95089
2023-05-01T02:07:37.553Z,95087
2023-05-01T02:11:02.795Z,95077
2023-05-01T02:14:28.069Z,95081
2023-05-01T02:17:53.395Z,95067
2023-05-01T02:21:18.548Z,95068
2023-05-01T02:24:43.794Z,95073
2023-05-01T02:28:09.049Z,95069
2023-05-01T02:31:34.362Z,95064
2023-05-01T02:34:59.549Z,95057
2023-05-01T02:38:24.817Z,95062
2023-05-01T02:41:50.059Z,95061
2023-05-01T02:45:15.288Z,95062
2023-05-01T02:48:40.586Z,95063
2023-05-01T02:52:05.799Z,95056
2023-05-01T02:55:31.035Z,95057
2023-05-01T02:58:56.262Z,95048
2023-05-01T03:02:21.558Z,95047
2023-05-01T03:05:46.801Z,95045
2023-05-01T03:09:12.004Z,95050
2023-05-01T03:12:37.268Z,95046
2023-05-01T03:16:02.531Z,95043
2023-05-01T03:19:27.761Z,95037
2023-05-01T03:22:53.045Z,95030
2023-05-01T03:26:18.261Z,95025
2023-05-01T03:29:43.505Z,95025
2023-05-01T03:33:08.772Z,95014
2023-05-01T03:36:34.008Z,95014
2023-05-01T03:39:59.271Z,95008
2023-05-01T03:43:24.472Z,95007
2023-05-01T03:46:49.723Z,95011
2023-05-01T03:50:14.990Z,95009
2023-05-01T03:53:40.204Z,95010
2023-05-01T03:57:05.495Z,95007
2023-05-01T04:00:30.782Z,95006
2023-05-01T04:03:56.225Z,95008
2023-05-01T04:07:21.253Z,95007
2023-05-01T04:10:46.532Z,95003
2023-05-01T04:14:11.904Z,95007
2023-05-01T04:17:37.103Z,95004
2023-05-01T04:21:02.346Z,95003
2023-05-01T04:24:27.590Z,95002
2023-05-01T04:27:52.810Z,94992
2023-05-01T04:31:18.111Z,94999
2023-05-01T04:34:43.311Z,94989
2023-05-01T04:38:08.557Z,94992
2023-05-01T04:41:33.794Z,94985
2023-05-01T04:44:59.039Z,94988
2023-05-01T04:48:24.335Z,94994
2023-05-01T04:51:49.555Z,94989
2023-05-01T04:55:14.833Z,94994
2023-05-01T04:58:40.051Z,94989
2023-05-01T05:02:05.366Z,94990
2023-05-01T05:05:30.573Z,94993
2023-05-01T05:08:55.825Z,94987
2023-05-01T05:12:21.044Z,94987
2023-05-01T05:15:46.273Z,94987
2023-05-01T05:19:11.521Z,94989
2023-05-01T05:22:36.818Z,94988
2023-05-01T05:26:02.043Z,94984
2023-05-01T05:29:27.296Z,94985
2023-05-01T05:32:52.543Z,94983
2023-05-01T05:36:17.776Z,94975
2023-05-01T05:39:43.103Z,94983
2023-05-01T05:43:08.306Z,94980
2023-05-01T05:46:33.655Z,94976
2023-05-01T05:49:58.954Z,94974
2023-05-01T05:53:25.852Z,94972
2023-05-01T05:56:49.372Z,94973
2023-05-01T06:00:14.569Z,94975
2023-05-01T06:03:39.978Z,94977
2023-05-01T06:07:05.102Z,94968
2023-05-01T06:10:30.359Z,94966
2023-05-01T06:13:55.630Z,94958
2023-05-01T06:17:20.917Z,94961
2023-05-01T06:20:46.212Z,94960
2023-05-01T06:24:11.492Z,94958
2023-05-01T06:27:36.776Z,94966
2023-05-01T06:31:02.087Z,94961
2023-05-01T06:34:27.290Z,94960
2023-05-01T06:37:52.533Z,94956
2023-05-01T06:41:17.803Z,94954
2023-05-01T06:44:43.040Z,94951
2023-05-01T06:48:08.356Z,94950
2023-05-01T06:51:33.508Z,94946
2023-05-01T06:54:58.774Z,94942
2023-05-01T06:58:24.655Z,94939
2023-05-01T07:01:49.304Z,94936
2023-05-01T07:05:14.560Z,94933
2023-05-01T07:08:39.766Z,94933
2023-05-01T07:12:05.022Z,94928
2023-05-01T07:15:30.769Z,94929
2023-05-01T07:18:56.052Z,94934
2023-05-01T07:22:21.329Z,94926
2023-05-01T07:25:46.603Z,94925
2023-05-01T07:29:11.870Z,94922
2023-05-01T07:32:37.170Z,94921
2023-05-01T07:36:02.352Z,94918
2023-05-01T07:39:27.653Z,94910
2023-05-01T07:42:54.417Z,94908
2023-05-01T07:46:18.161Z,94907
2023-05-01T07:49:43.356Z,94903
2023-05-01T07:53:08.597Z,94898
2023-05-01T07:56:33.850Z,94896
2023-05-01T07:59:59.320Z,94892
2023-05-01T08:03:24.533Z,94894
2023-05-01T08:06:49.619Z,94887
2023-05-01T08:10:14.820Z,94887
2023-05-01T08:13:40.118Z,94885
2023-05-01T08:17:05.369Z,94881
2023-05-01T08:20:30.636Z,94889
2023-05-01T08:23:55.912Z,94878
2023-05-01T08:27:21.165Z,94875
2023-05-01T08:30:46.477Z,94873
2023-05-01T08:34:11.684Z,94880
2023-05-01T08:37:36.974Z,94878
2023-05-01T08:41:02.254Z,94874
2023-05-01T08:44:27.532Z,94875
2023-05-01T08:47:52.836Z,94875
2023-05-01T08:51:19.581Z,94871
2023-05-01T08:54:43.335Z,94866
2023-05-01T08:58:08.614Z,94866
2023-05-01T09:01:33.921Z,94861
2023-05-01T09:04:59.249Z,94857
2023-05-01T09:08:24.476Z,94858
2023-05-01T09:11:49.748Z,94862
2023-05-01T09:15:14.992Z,94855
2023-05-01T09:18:40.285Z,94850
2023-05-01T09:22:05.583Z,94845
2023-05-01T09:25:30.858Z,94843
2023-05-01T09:28:56.123Z,94842
2023-05-01T09:32:21.651Z,94839
2023-05-01T09:35:46.670Z,94830
2023-05-01T09:39:11.998Z,94827
2023-05-01T09:42:37.431Z,94828
2023-05-01T09:46:02.703Z,94823
2023-05-01T09:49:27.992Z,94823
2023-05-01T09:52:53.268Z,94826
2023-05-01T09:56:18.555Z,94823
2023-05-01T09:59:43.794Z,94819
2023-05-01T10:03:09.120Z,94814
2023-05-01T10:06:34.438Z,94807
2023-05-01T10:10:01.597Z,94799
2023-05-01T10:13:25.013Z,94798
2023-05-01T10:16:50.312Z,94795
2023-05-01T10:20:15.481Z,94793
2023-05-01T10:23:40.730Z,94788
2023-05-01T10:27:05.987Z,94786
2023-05-01T10:30:31.262Z,94784
2023-05-01T10:33:56.616Z,94783
2023-05-01T10:37:21.912Z,94786
2023-05-01T10:40:47.165Z,94796
2023-05-01T10:44:12.369Z,94788
2023-05-01T10:47:37.736Z,94776
2023-05-01T10:51:02.878Z,94767
2023-05-01T10:54:28.154Z,94761
2023-05-01T10:57:53.389Z,94754
2023-05-01T11:01:18.651Z,94759
2023-05-01T11:04:43.929Z,94749
2023-05-01T11:08:09.215Z,94741
2023-05-01T11:11:34.468Z,94739
2023-05-01T11:14:59.768Z,94740
2023-05-01T11:18:24.980Z,94733
2023-05-01T11:21:50.300Z,94729
2023-05-01T11:25:15.534Z,94727
2023-05-01T11:28:40.759Z,94728
2023-05-01T11:32:06.071Z,94727
2023-05-01T11:35:31.317Z,94720
2023-05-01T11:38:56.614Z,94714
2023-05-01T11:42:21.889Z,94718
2023-05-01T11:45:47.129Z,94722
2023-05-01T11:49:12.472Z,94715
2023-05-01T11:52:37.772Z,94712
2023-05-01T11:56:03.416Z,94715
2023-05-01T11:59:28.364Z,94713
2023-05-01T12:02:53.683Z,94712
2023-05-01T12:06:18.944Z,94706
2023-05-01T12:09:44.220Z,94708
2023-05-01T12:13:09.509Z,94709
2023-05-01T12:16:34.818Z,94704
2023-05-01T12:20:00.079Z,94702
2023-05-01T12:23:25.354Z,94699
2023-05-01T12:26:50.658Z,94699
2023-05-01T12:30:16.029Z,94702
2023-05-01T12:33:41.274Z,94699
2023-05-01T12:37:06.573Z,94704
2023-05-01T12:40:31.850Z,94691
2023-05-01T12:43:57.091Z,94697
2023-05-01T12:47:22.387Z,94691
2023-05-01T12:50:48.561Z,94683
2023-05-01T12:54:12.889Z,94681
2023-05-01T12:57:38.190Z,94678
2023-05-01T13:01:03.497Z,94678
2023-05-01T13:04:28.871Z,94674
2023-05-01T13:07:53.932Z,94674
2023-05-01T13:11:19.244Z,94674
2023-05-01T13:14:44.560Z,94669
2023-05-01T13:18:09.954Z,94666
2023-05-01T13:21:35.091Z,94667
2023-05-01T13:25:00.408Z,94666
2023-05-01T13:28:25.682Z,94668
2023-05-01T13:31:50.973Z,94662
2023-05-01T13:35:16.242Z,94663
2023-05-01T13:38:41.568Z,94669
2023-05-01T13:42:06.819Z,94661
2023-05-01T13:45:32.149Z,94662
2023-05-01T13:48:57.393Z,94659
2023-05-01T13:52:23.333Z,94660
2023-05-01T13:55:48.672Z,94656
2023-05-01T13:59:14.020Z,94655
2023-05-01T14:02:39.337Z,94651
2023-05-01T14:06:04.591Z,94653
2023-05-01T14:09:29.827Z,94653
2023-05-01T14:12:55.110Z,94649
2023-05-01T14:16:20.363Z,94642
2023-05-01T14:19:45.640Z,94643
2023-05-01T14:23:10.874Z,94638
2023-05-01T14:26:37.206Z,94640
2023-05-01T14:30:01.436Z,94637
2023-05-01T14:33:26.666Z,94630
2023-05-01T14:36:51.941Z,94634
2023-05-01T14:40:17.209Z,94635
2023-05-01T14:43:42.518Z,94634
2023-05-01T14:47:07.810Z,94628
2023-05-01T14:50:33.070Z,94628
2023-05-01T14:53:58.343Z,94637
2023-05-01T14:57:23.634Z,94635
2023-05-01T15:00:48.996Z,94640
2023-05-01T15:04:14.471Z,94643
2023-05-01T15:41:13.981Z,94661
2023-05-01T15:44:39.109Z,94671
2023-05-01T15:48:04.363Z,94674
2023-05-01T15:51:29.563Z,94672
2023-05-01T15:54:54.794Z,94677
2023-05-01T15:58:20.130Z,94682
2023-05-01T16:01:45.410Z,94682
2023-05-01T16:05:10.600Z,94694
2023-05-01T16:08:35.810Z,94700
2023-05-01T16:12:01.003Z,94707
2023-05-01T16:15:26.240Z,94714
2023-05-01T16:18:51.421Z,94718
2023-05-01T16:22:16.612Z,94719
2023-05-01T16:25:41.796Z,94722
2023-05-01T16:29:07.070Z,94726
2023-05-01T16:32:32.300Z,94727
2023-05-01T16:35:57.489Z,94729
2023-05-01T16:39:22.699Z,94732
2023-05-01T16:42:47.876Z,94730
2023-05-01T16:46:13.241Z,94730
2023-05-01T16:49:38.339Z,94732
2023-05-01T16:53:03.531Z,94734
2023-05-01T16:56:28.685Z,94739
2023-05-01T16:59:53.907Z,94744
2023-05-01T17:03:19.141Z,94748
2023-05-01T17:06:44.381Z,94743
2023-05-01T17:10:09.594Z,94745
2023-05-01T17:13:34.910Z,94744
2023-05-01T17:17:00.111Z,94743
2023-05-01T17:20:25.376Z,94743
2023-05-01T17:23:50.591Z,94747
2023-05-01T17:27:15.753Z,94751
2023-05-01T17:30:40.927Z,94753
2023-05-01T17:34:06.145Z,94744
2023-05-01T17:37:31.280Z,94740
2023-05-01T17:40:56.483Z,94739
2023-05-01T17:44:21.645Z,94737
2023-05-01T17:47:46.862Z,94737
2023-05-01T17:51:12.116Z,94741
2023-05-01T17:54:37.335Z,94745
2023-05-01T17:58:02.504Z,94747
2023-05-01T18:01:27.693Z,94741
2023-05-01T18:04:52.841Z,94749
2023-05-01T18:08:18.045Z,94746
2023-05-01T18:11:43.224Z,94749
2023-05-01T18:15:08.448Z,94751
2023-05-01T18:18:33.608Z,94747
2023-05-01T18:21:58.804Z,94746
2023-05-01T18:25:23.984Z,94745
2023-05-01T18:28:49.138Z,94751
2023-05-01T18:32:14.322Z,94751
2023-05-01T18:35:39.521Z,94757
2023-05-01T18:39:04.733Z,94749
2023-05-01T18:42:29.897Z,94747
2023-05-01T18:45:55.111Z,94753
2023-05-01T18:49:20.325Z,94752
2023-05-01T18:52:45.522Z,94753
2023-05-01T18:56:10.728Z,94757
2023-05-01T18:59:35.914Z,94754
2023-05-01T19:03:01.130Z,94759
2023-05-01T19:06:26.314Z,94761
2023-05-01T19:09:51.438Z,94766
2023-05-01T19:13:16.661Z,94770
2023-05-01T19:16:41.951Z,94776
2023-05-01T19:20:07.033Z,94776
2023-05-01T19:23:32.232Z,94776
2023-05-01T19:26:57.360Z,94780
2023-05-01T19:30:22.574Z,94777
2023-05-01T19:33:47.801Z,94776
2023-05-01T19:37:12.962Z,94775
2023-05-01T19:40:38.355Z,94771
2023-05-01T19:44:03.568Z,94770
2023-05-01T19:47:28.738Z,94780
2023-05-01T19:50:53.888Z,94784
2023-05-01T19:54:19.090Z,94782
2023-05-01T19:57:44.287Z,94784
2023-05-01T20:01:09.519Z,94785
2023-05-01T20:04:34.688Z,94789
2023-05-01T20:07:59.823Z,94790
2023-05-01T20:11:25.005Z,94791
2023-05-01T20:14:50.200Z,94796
2023-05-01T20:18:15.351Z,94802
2023-05-01T20:21:40.503Z,94804
2023-05-01T20:25:07.482Z,94800
2023-05-01T20:28:30.926Z,94802
2023-05-01T20:31:56.084Z,94796
2023-05-01T20:35:21.247Z,94797
2023-05-01T20:38:46.438Z,94796
2023-05-01T20:42:11.591Z,94803
2023-05-01T20:45:36.802Z,94804
2023-05-01T20:49:01.996Z,94802
2023-05-01T20:52:27.146Z,94811
2023-05-01T20:55:52.333Z,94818
2023-05-01T20:59:17.504Z,94819
2023-05-01T21:02:42.784Z,94823
2023-05-01T21:06:07.893Z,94828
2023-05-01T21:09:33.491Z,94828
2023-05-01T21:12:58.711Z,94828
2023-05-01T21:16:23.924Z,94827
2023-05-01T21:19:49.028Z,94836
2023-05-01T21:23:14.203Z,94836
2023-05-01T21:26:39.352Z,94836
2023-05-01T21:30:04.563Z,94834
2023-05-01T21:33:29.697Z,94831
2023-05-01T21:36:54.890Z,94838
2023-05-01T21:40:20.082Z,94848
2023-05-01T21:43:45.227Z,94850
2023-05-01T21:47:10.425Z,94848
2023-05-01T21:50:35.596Z,94857
2023-05-01T21:54:00.775Z,94853
2023-05-01T21:57:26.080Z,94856
2023-05-01T22:00:51.165Z,94858
2023-05-01T22:04:16.410Z,94858
2023-05-01T22:07:41.509Z,94853
2023-05-01T22:11:08.418Z,94856
2023-05-01T22:14:43.930Z,94857
2023-05-01T22:17:57.171Z,94852
2023-05-01T22:21:22.247Z,94857
2023-05-01T22:24:47.420Z,94858
2023-05-01T22:28:12.609Z,94857
2023-05-01T22:31:37.834Z,94860
2023-05-01T22:35:02.964Z,94861
2023-05-01T22:38:28.177Z,94861
2023-05-01T22:41:53.375Z,94863
2023-05-01T22:45:18.565Z,94858
2023-05-01T22:48:43.762Z,94859
2023-05-01T22:52:08.887Z,94863
2023-05-01T22:55:34.072Z,94861
2023-05-01T22:58:59.236Z,94866
2023-05-01T23:02:24.498Z,94863
2023-05-01T23:05:49.642Z,94860
2023-05-01T23:09:14.795Z,94860
2023-05-01T23:12:39.976Z,94866
2023-05-01T23:16:05.175Z,94873
2023-05-01T23:19:30.324Z,94874
2023-05-01T23:22:55.525Z,94875
2023-05-01T23:26:20.672Z,94873
2023-05-01T23:29:45.845Z,94868
2023-05-01T23:33:11.073Z,94872
2023-05-01T23:36:36.244Z,94869
2023-05-01T23:40:01.633Z,94869
2023-05-01T23:43:26.592Z,94866
2023-05-01T23:46:51.791Z,94868
2023-05-01T23:50:16.943Z,94868
2023-05-01T23:53:42.121Z,94871
2023-05-01T23:57:07.324Z,94871
